Time;durP1;ratioP1;P1;durP2;ratioP2;P2;SDS_P1;SDS_P2;PMS_P1;PMS_P2;Temp;Humidity;BMP_temperature;BMP_pressure;BME280_temperature;BME280_humidity;BME280_pressure;Samples;Min_cycle;Max_cycle;Signal;HPM_P1;HPM_P2
2022/11/01 00:01:42;;;;;;;16.42;9.05;;;;;;;13.34;100.00;100847.69;4977390;28;20030;-84
2022/11/01 00:04:07;;;;;;;17.75;8.43;;;;;;;13.35;100.00;100839.81;4977479;28;20053;-80
2022/11/01 00:06:36;;;;;;;14.95;8.43;;;;;;;13.44;100.00;100857.28;4976145;28;20030;-82
2022/11/01 00:09:03;;;;;;;15.48;8.38;;;;;;;13.49;100.00;100851.75;4977420;28;20031;-84
2022/11/01 00:11:28;;;;;;;15.57;7.72;;;;;;;13.48;100.00;100834.53;4977247;28;20394;-73
2022/11/01 00:13:53;;;;;;;16.70;8.32;;;;;;;13.53;100.00;100850.59;4977423;28;20027;-76
2022/11/01 00:16:20;;;;;;;15.80;7.90;;;;;;;13.56;100.00;100844.31;4977179;28;20034;-74
2022/11/01 00:18:45;;;;;;;21.35;8.38;;;;;;;13.51;100.00;100823.09;4977039;28;20035;-85
2022/11/01 00:21:12;;;;;;;17.15;7.68;;;;;;;13.57;100.00;100833.84;4977236;28;20438;-74
2022/11/01 00:23:38;;;;;;;14.80;8.05;;;;;;;13.61;100.00;100831.84;4977359;28;20034;-75
2022/11/01 00:26:04;;;;;;;16.67;8.40;;;;;;;13.64;100.00;100834.19;4977536;28;20031;-74
2022/11/01 00:28:30;;;;;;;14.60;7.55;;;;;;;13.67;100.00;100826.22;4977100;28;20035;-75
2022/11/01 00:30:56;;;;;;;13.85;8.18;;;;;;;13.77;100.00;100827.97;4976864;28;20030;-77
2022/11/01 00:33:22;;;;;;;13.60;7.50;;;;;;;13.79;100.00;100820.06;4976663;28;20061;-73
2022/11/01 00:35:48;;;;;;;16.77;7.78;;;;;;;13.94;100.00;100825.84;4977512;28;20114;-74
2022/11/01 00:38:18;;;;;;;18.05;7.60;;;;;;;13.82;100.00;100793.03;4976978;28;20027;-73
2022/11/01 00:40:44;;;;;;;14.43;7.47;;;;;;;14.02;100.00;100802.72;4976743;28;20117;-72
2022/11/01 00:43:10;;;;;;;15.90;6.88;;;;;;;14.23;100.00;100820.97;4976687;28;20026;-74
2022/11/01 00:45:35;;;;;;;15.65;7.00;;;;;;;14.26;100.00;100803.41;4976417;28;20031;-72
2022/11/01 00:48:00;;;;;;;17.80;6.80;;;;;;;14.46;100.00;100820.06;4976512;28;20031;-74
2022/11/01 00:50:26;;;;;;;14.82;6.93;;;;;;;14.49;100.00;100822.41;4976515;28;20023;-73
2022/11/01 00:52:51;;;;;;;14.90;6.10;;;;;;;14.58;100.00;100820.84;4976380;28;20435;-73
2022/11/01 00:55:16;;;;;;;19.95;6.57;;;;;;;14.55;100.00;100823.66;4976439;28;20049;-74
2022/11/01 00:57:45;;;;;;;11.85;6.50;;;;;;;14.58;100.00;100813.03;4976431;28;20195;-79
2022/11/01 01:00:13;;;;;;;15.32;6.65;;;;;;;14.62;100.00;100817.88;4976299;28;20031;-74
2022/11/01 01:02:39;;;;;;;14.30;6.45;;;;;;;14.58;100.00;100813.03;4976566;28;20026;-75
2022/11/01 01:05:05;;;;;;;12.15;6.30;;;;;;;14.62;100.00;100814.44;4976219;28;20023;-78
2022/11/01 01:07:31;;;;;;;12.35;6.07;;;;;;;14.60;100.00;100809.38;4976309;28;20118;-74
2022/11/01 01:09:56;;;;;;;15.73;6.90;;;;;;;14.59;100.00;100806.91;4976329;28;20110;-73
2022/11/01 01:12:23;;;;;;;15.77;6.43;;;;;;;14.51;100.00;100804.09;4976181;28;20030;-73
2022/11/01 01:14:48;;;;;;;11.63;5.80;;;;;;;14.47;100.00;100803.50;4976166;28;20429;-74
2022/11/01 01:17:14;;;;;;;13.57;6.72;;;;;;;14.34;100.00;100780.22;4976066;28;20023;-74
2022/11/01 01:19:39;;;;;;;14.70;6.90;;;;;;;14.34;100.00;100774.19;4976075;28;20035;-79
2022/11/01 01:22:04;;;;;;;13.68;6.70;;;;;;;14.45;100.00;100789.78;4990995;28;20034;-74
2022/11/01 01:24:31;;;;;;;16.73;6.97;;;;;;;14.47;100.00;100782.72;4975929;28;20023;-74
2022/11/01 01:26:56;;;;;;;13.45;6.93;;;;;;;14.55;100.00;100800.28;4976012;28;20081;-77
2022/11/01 01:29:21;;;;;;;16.48;7.20;;;;;;;14.55;100.00;100800.28;4975796;28;20418;-81
2022/11/01 01:31:49;;;;;;;12.43;6.50;;;;;;;14.56;100.00;100802.78;4974393;28;20442;-73
2022/11/01 01:34:14;;;;;;;12.15;6.05;;;;;;;14.58;100.00;100800.88;4975716;28;20034;-73
2022/11/01 01:36:40;;;;;;;13.68;6.35;;;;;;;14.61;100.00;100799.78;4975668;28;20030;-76
2022/11/01 01:39:05;;;;;;;14.70;7.32;;;;;;;14.63;100.00;100795.28;4975622;28;20118;-75
2022/11/01 01:44:59;;;;;;;14.50;7.00;;;;;;;14.66;100.00;100805.47;4975722;28;20395;-82
2022/11/01 01:47:29;;;;;;;14.65;6.68;;;;;;;14.68;100.00;100797.53;4953902;29;22466;-75
2022/11/01 01:49:56;;;;;;;14.73;6.28;;;;;;;14.69;100.00;100799.19;4953855;29;20031;-75
2022/11/01 01:52:22;;;;;;;12.40;7.00;;;;;;;14.63;100.00;100788.31;4953754;29;20520;-78
2022/11/01 01:54:49;;;;;;;17.02;7.18;;;;;;;14.59;100.00;100805.13;4953900;29;20118;-79
2022/11/01 01:57:16;;;;;;;14.18;6.93;;;;;;;14.65;100.00;100788.22;4953977;28;20043;-78
2022/11/01 01:59:42;;;;;;;14.80;6.80;;;;;;;14.77;100.00;100791.59;4953927;29;20035;-74
2022/11/01 02:02:07;;;;;;;15.02;7.32;;;;;;;14.85;100.00;100771.00;4954000;29;20376;-80
2022/11/01 02:04:41;;;;;;;15.35;7.32;;;;;;;14.93;100.00;100784.19;4953528;29;20047;-75
2022/11/01 02:07:07;;;;;;;13.70;6.88;;;;;;;14.98;100.00;100789.84;4953730;29;20028;-86
2022/11/01 02:09:34;;;;;;;14.07;6.80;;;;;;;14.91;100.00;100762.69;4953524;29;20035;-73
2022/11/01 02:12:00;;;;;;;12.10;6.05;;;;;;;14.89;100.00;100765.41;4953747;29;20043;-85
2022/11/01 02:14:26;;;;;;;15.10;7.15;;;;;;;14.77;100.00;100727.44;4953679;29;20468;-82
2022/11/01 02:17:00;;;;;;;11.30;5.95;;;;;;;15.15;100.00;100778.88;4953561;29;20047;-85
2022/11/01 02:19:37;;;;;;;14.10;6.50;;;;;;;15.15;100.00;100789.28;4937259;29;20046;-86
2022/11/01 02:22:38;;;;;;;15.48;6.55;;;;;;;15.12;100.00;100786.91;4953305;29;20105;-85
2022/11/01 02:25:29;;;;;;;14.43;6.18;;;;;;;15.14;100.00;100795.44;4971824;28;20051;-86
2022/11/01 02:28:13;;;;;;;13.38;6.40;;;;;;;15.19;100.00;100788.06;4974892;28;20023;-85
2022/11/01 02:30:55;;;;;;;13.05;6.18;;;;;;;15.20;100.00;100794.09;4974743;28;20030;-84
2022/11/01 02:33:28;;;;;;;14.27;6.93;;;;;;;15.20;100.00;100789.72;4974894;28;20026;-85
2022/11/01 02:35:57;;;;;;;11.90;6.00;;;;;;;15.16;100.00;100784.91;4974502;28;20371;-86
2022/11/01 02:38:42;;;;;;;11.48;5.72;;;;;;;15.09;100.00;100792.38;4974405;28;20101;-85
2022/11/01 02:41:14;;;;;;;13.85;6.57;;;;;;;15.05;100.00;100796.19;4974487;28;20355;-78
2022/11/01 02:43:53;;;;;;;;;;;;;;;15.00;100.00;100795.75;4975088;28;20114;-85
2022/11/01 02:49:06;;;;;;;12.35;5.45;;;;;;;14.95;100.00;100807.47;4974435;28;20093;-84
2022/11/01 02:51:34;;;;;;;11.63;5.78;;;;;;;14.89;100.00;100798.41;4973878;28;20451;-84
2022/11/01 02:54:00;;;;;;;11.63;5.65;;;;;;;14.93;100.00;100808.41;4974502;28;20057;-84
2022/11/01 02:56:26;;;;;;;12.38;5.68;;;;;;;14.62;100.00;100754.66;4972735;28;20043;-86
2022/11/01 02:58:53;;;;;;;11.65;5.90;;;;;;;14.88;100.00;100804.56;4974378;28;20034;-86
2022/11/01 03:01:23;;;;;;;11.77;5.50;;;;;;;14.86;100.00;100801.25;4974447;28;20033;-82
2022/11/01 03:03:52;;;;;;;11.40;6.40;;;;;;;14.78;100.00;100795.84;4974436;28;20364;-84
2022/11/01 03:06:29;;;;;;;11.75;5.97;;;;;;;14.82;100.00;100805.03;4973810;28;20094;-83
2022/11/01 03:08:58;;;;;;;16.52;5.75;;;;;;;14.71;100.00;100802.47;4974452;28;20030;-75
2022/11/01 03:11:32;;;;;;;10.48;5.60;;;;;;;14.69;100.00;100797.41;4974365;28;20026;-84
2022/11/01 03:14:16;;;;;;;12.77;5.97;;;;;;;14.77;100.00;100815.00;4974462;28;20030;-84
2022/11/01 03:17:24;;;;;;;15.07;6.63;;;;;;;14.75;100.00;100830.72;4974165;28;20510;-81
2022/11/01 03:19:57;;;;;;;11.02;6.38;;;;;;;14.70;100.00;100832.84;4989165;28;20395;-82
2022/11/01 03:22:34;;;;;;;11.20;5.75;;;;;;;14.65;100.00;100840.19;4973956;28;20494;-85
2022/11/01 03:25:37;;;;;;;11.70;5.60;;;;;;;14.58;100.00;100839.84;4974204;28;20497;-76
2022/11/01 03:27:56;;;;;;;11.07;5.95;;;;;;;14.61;100.00;100846.56;4973883;28;20039;-75
2022/11/01 03:30:21;;;;;;;11.10;5.97;;;;;;;14.50;100.00;100833.63;4974155;28;20109;-86
2022/11/01 03:32:52;;;;;;;10.05;5.10;;;;;;;14.50;99.86;100831.84;4973892;28;20030;-79
2022/11/01 03:35:22;;;;;;;10.93;4.85;;;;;;;14.59;98.33;100857.09;4974093;28;20062;-75
2022/11/01 03:37:51;;;;;;;9.52;4.13;;;;;;;14.46;95.61;100842.63;4973727;28;20039;-76
2022/11/01 03:40:17;;;;;;;8.18;3.58;;;;;;;14.59;93.69;100869.28;4973939;28;20170;-82
2022/11/01 03:42:46;;;;;;;8.55;3.38;;;;;;;14.59;91.78;100877.88;4974020;28;20019;-79
2022/11/01 03:45:15;;;;;;;6.32;3.15;;;;;;;14.58;90.51;100884.03;4974047;28;20053;-73
2022/11/01 03:47:41;;;;;;;5.90;2.45;;;;;;;14.60;88.27;100891.72;4973838;28;20073;-73
2022/11/01 03:50:27;;;;;;;6.72;2.45;;;;;;;14.54;87.47;100882.59;4972524;28;20042;-79
2022/11/01 03:52:53;;;;;;;9.73;2.60;;;;;;;14.49;86.86;100889.13;4973503;28;20447;-81
2022/11/01 03:55:19;;;;;;;6.38;1.92;;;;;;;14.38;85.18;100889.13;4973823;28;20042;-75
2022/11/01 03:57:58;;;;;;;7.10;2.10;;;;;;;14.41;85.12;100904.44;4973870;28;20027;-76
2022/11/01 04:00:30;;;;;;;4.35;1.88;;;;;;;14.18;84.67;100891.47;4973526;28;20090;-76
2022/11/01 04:02:57;;;;;;;5.10;1.90;;;;;;;14.16;83.45;100902.91;4973668;28;20478;-73
2022/11/01 04:05:24;;;;;;;5.65;2.13;;;;;;;14.19;83.14;100923.47;4973668;28;20057;-73
2022/11/01 04:07:52;;;;;;;3.15;1.50;;;;;;;14.06;82.42;100918.41;4975560;28;20039;-73
2022/11/01 04:10:19;;;;;;;3.90;1.50;;;;;;;14.02;80.62;100929.94;4977338;28;20390;-77
2022/11/01 04:12:45;;;;;;;7.72;1.95;;;;;;;13.95;80.48;100942.56;4977243;28;20023;-81
2022/11/01 04:20:48;;;;;;;5.20;1.38;;;;;;;13.89;78.19;100961.19;4977201;28;20093;-80
2022/11/01 04:23:13;;;;;;;6.13;1.10;;;;;;;13.86;77.62;100965.78;4976737;28;20023;-77
2022/11/01 04:25:39;;;;;;;4.88;1.83;;;;;;;13.80;77.76;100974.03;4977030;28;20037;-73
2022/11/01 04:28:04;;;;;;;2.85;1.13;;;;;;;13.71;78.08;100980.72;4976735;28;20027;-75
2022/11/01 04:30:29;;;;;;;5.53;1.50;;;;;;;13.60;78.38;100978.94;4976752;28;20474;-78
2022/11/01 04:32:55;;;;;;;3.53;1.00;;;;;;;13.51;79.02;100984.78;4976813;28;20023;-80
2022/11/01 04:35:21;;;;;;;5.63;1.10;;;;;;;13.49;78.51;101008.25;4976692;28;20134;-81
2022/11/01 04:37:47;;;;;;;3.90;1.13;;;;;;;13.40;78.19;100998.53;4976420;28;20046;-80
2022/11/01 04:40:13;;;;;;;2.90;1.00;;;;;;;13.36;78.78;101014.41;4976654;28;20034;-80
2022/11/01 04:42:39;;;;;;;4.20;1.05;;;;;;;13.27;80.76;101018.47;4976657;28;20045;-79
2022/11/01 04:45:06;;;;;;;3.38;1.20;;;;;;;13.18;81.34;101017.38;4976422;28;20475;-81
2022/11/01 04:47:32;;;;;;;4.45;1.00;;;;;;;13.06;80.35;101000.06;4976377;28;20031;-79
2022/11/01 04:49:57;;;;;;;3.30;1.00;;;;;;;13.12;80.74;101032.53;4976514;28;20034;-77
2022/11/01 04:52:23;;;;;;;4.50;0.95;;;;;;;12.93;81.37;101023.44;4976067;28;20158;-75
2022/11/01 04:54:48;;;;;;;4.32;1.33;;;;;;;12.91;81.66;101040.03;4976454;28;20023;-78
2022/11/01 04:57:24;;;;;;;4.90;0.93;;;;;;;12.74;81.99;101035.19;4976171;28;20445;-74
2022/11/01 04:59:50;;;;;;;5.05;1.02;;;;;;;12.83;82.01;101063.06;4976339;28;20090;-75
2022/11/01 05:02:15;;;;;;;2.90;1.10;;;;;;;12.78;82.47;101054.75;4976469;28;20118;-73
2022/11/01 05:04:40;;;;;;;4.22;1.23;;;;;;;12.81;82.94;101086.50;4976498;28;20423;-75
2022/11/01 05:07:06;;;;;;;7.15;1.10;;;;;;;12.81;81.70;101080.47;4974735;28;20093;-77
2022/11/01 05:09:31;;;;;;;6.28;1.63;;;;;;;12.81;81.79;101081.31;4975990;28;20449;-79
2022/11/01 05:11:56;;;;;;;3.05;0.85;;;;;;;12.82;82.70;101101.09;4976211;28;20039;-87
2022/11/01 05:14:22;;;;;;;5.30;1.00;;;;;;;12.80;81.12;101095.19;4976872;28;20094;-74
2022/11/01 05:16:47;;;;;;;5.15;1.20;;;;;;;12.64;81.50;101084.19;4974830;28;20041;-73
2022/11/01 05:19:12;;;;;;;3.08;0.90;;;;;;;12.63;81.72;101088.56;4975758;28;20035;-73
2022/11/01 05:21:37;;;;;;;3.42;0.85;;;;;;;12.62;81.14;101097.25;4976013;28;20058;-73
2022/11/01 05:24:03;;;;;;;3.60;1.10;;;;;;;12.62;79.51;101101.63;4975792;28;20027;-76
2022/11/01 05:26:28;;;;;;;4.60;1.88;;;;;;;12.48;78.88;101083.56;4975797;28;20030;-81
2022/11/01 05:28:53;;;;;;;3.10;1.08;;;;;;;12.56;78.94;101104.59;4975615;28;20374;-79
2022/11/01 05:31:19;;;;;;;4.50;1.20;;;;;;;12.53;78.09;101120.38;4975854;28;20157;-86
2022/11/01 05:33:44;;;;;;;10.27;2.10;;;;;;;12.50;78.98;101120.59;4975771;28;20110;-80
2022/11/01 05:36:09;;;;;;;3.60;1.30;;;;;;;12.47;78.41;101119.00;4974337;28;20038;-84
2022/11/01 05:38:35;;;;;;;7.78;1.65;;;;;;;12.19;78.60;101076.00;4975299;28;20015;-74
2022/11/01 05:41:02;;;;;;;6.72;1.35;;;;;;;12.33;78.32;101122.50;4975489;28;20027;-82
2022/11/01 05:43:27;;;;;;;4.13;1.30;;;;;;;12.04;79.39;101084.75;4990286;28;20023;-73
2022/11/01 05:45:52;;;;;;;6.07;1.20;;;;;;;12.27;78.63;101130.66;4975291;28;20050;-73
2022/11/01 05:48:18;;;;;;;3.83;1.10;;;;;;;12.22;78.55;101140.50;4975320;28;20027;-76
2022/11/01 05:50:45;;;;;;;4.88;1.27;;;;;;;12.13;79.12;101137.69;4975327;28;20125;-76
2022/11/01 05:53:11;;;;;;;4.82;1.13;;;;;;;12.00;80.35;101129.88;4974788;28;20093;-74
2022/11/01 05:55:38;;;;;;;5.68;1.17;;;;;;;11.83;81.25;101114.59;4975282;28;20415;-74
2022/11/01 05:58:03;;;;;;;4.60;1.35;;;;;;;11.93;81.73;101142.38;4975194;28;20039;-73
2022/11/01 06:00:29;;;;;;;2.97;1.00;;;;;;;11.87;81.69;101139.34;4975207;28;20027;-73
2022/11/01 06:02:56;;;;;;;5.68;1.00;;;;;;;11.76;82.22;101135.63;4975032;28;20022;-73
2022/11/01 06:05:22;;;;;;;5.72;1.10;;;;;;;11.81;82.94;101163.03;4975091;28;20061;-73
2022/11/01 06:07:47;;;;;;;5.78;1.23;;;;;;;11.76;82.12;101146.00;4974926;28;20066;-72
2022/11/01 06:10:12;;;;;;;6.65;1.65;;;;;;;11.85;81.21;101161.91;4974997;28;20419;-73
2022/11/01 06:12:37;;;;;;;3.10;1.30;;;;;;;11.87;79.24;101160.03;4973841;28;20027;-72
2022/11/01 06:15:03;;;;;;;6.82;1.60;;;;;;;11.89;78.92;101186.66;4974896;28;20528;-73
2022/11/01 06:17:28;;;;;;;7.72;1.40;;;;;;;11.74;77.58;101167.72;4974701;28;20034;-73
2022/11/01 06:19:54;;;;;;;7.63;1.83;;;;;;;11.87;77.20;101184.16;4974995;28;20478;-72
2022/11/01 06:22:19;;;;;;;10.25;1.70;;;;;;;11.86;76.41;101187.69;4974605;28;20054;-77
2022/11/01 06:24:44;;;;;;;8.43;1.75;;;;;;;11.86;76.36;101186.84;4974494;28;20031;-74
2022/11/01 06:27:10;;;;;;;10.25;1.92;;;;;;;11.97;76.20;101199.94;4974603;28;20483;-77
2022/11/01 06:29:35;;;;;;;14.65;2.17;;;;;;;11.90;76.05;101199.50;4973989;28;20046;-84
2022/11/01 06:32:02;;;;;;;6.45;1.40;;;;;;;11.91;75.82;101193.41;4974578;28;20019;-79
2022/11/01 06:34:27;;;;;;;6.78;1.58;;;;;;;11.90;76.25;101207.28;4974827;28;20115;-74
2022/11/01 06:36:53;;;;;;;8.07;1.38;;;;;;;11.88;76.79;101221.22;4973060;28;20117;-80
2022/11/01 06:39:18;;;;;;;4.25;1.30;;;;;;;11.85;77.40;101211.91;4974469;28;20027;-76
2022/11/01 06:41:43;;;;;;;7.82;1.35;;;;;;;11.68;78.32;101197.38;4974635;28;20034;-75
2022/11/01 06:44:09;;;;;;;9.60;1.48;;;;;;;11.76;78.03;101223.59;4974509;28;20046;-83
2022/11/01 06:46:34;;;;;;;6.22;1.45;;;;;;;11.63;78.22;101219.28;4974435;28;20145;-84
2022/11/01 06:48:59;;;;;;;7.45;1.50;;;;;;;11.68;79.69;101227.59;4974048;28;20062;-81
2022/11/01 06:51:26;;;;;;;9.85;1.60;;;;;;;11.65;79.86;101232.97;4974461;28;20089;-80
2022/11/01 06:53:51;;;;;;;4.57;1.17;;;;;;;11.59;80.49;101234.16;4974238;28;20039;-85
2022/11/01 06:56:17;;;;;;;6.55;1.65;;;;;;;11.53;81.01;101231.13;4974304;28;20030;-84
2022/11/01 06:58:42;;;;;;;11.18;1.58;;;;;;;11.51;81.18;101236.41;4974312;28;20034;-86
2022/11/01 07:01:07;;;;;;;8.63;1.35;;;;;;;11.42;81.59;101230.00;4974381;28;20029;-81
2022/11/01 07:03:33;;;;;;;9.90;1.63;;;;;;;11.40;82.26;101226.66;4972823;28;20027;-73
2022/11/01 07:05:59;;;;;;;6.10;1.20;;;;;;;11.48;81.71;101250.31;4974502;28;20069;-78
2022/11/01 07:08:24;;;;;;;8.32;1.52;;;;;;;11.50;82.46;101252.81;4974162;28;20421;-85
2022/11/01 07:10:50;;;;;;;10.38;1.77;;;;;;;11.45;81.42;101247.09;4974078;28;20106;-86
2022/11/01 07:13:15;;;;;;;7.78;1.73;;;;;;;11.44;81.00;101233.34;4972774;28;20502;-82
2022/11/01 07:15:40;;;;;;;7.30;1.25;;;;;;;11.55;81.36;101255.13;4989039;28;20030;-74
2022/11/01 07:18:07;;;;;;;9.32;1.80;;;;;;;11.58;82.05;101273.03;4973956;28;20031;-82
2022/11/01 07:20:40;;;;;;;8.43;1.60;;;;;;;11.59;81.43;101285.88;4973969;28;20422;-82
2022/11/01 07:23:06;;;;;;;13.02;1.92;;;;;;;11.58;81.10;101291.97;4974291;28;20110;-84
2022/11/01 07:25:32;;;;;;;10.20;1.50;;;;;;;11.57;81.18;101290.31;4973604;28;20027;-73
2022/11/01 07:27:58;;;;;;;7.78;1.60;;;;;;;11.59;81.43;101296.22;4973890;28;20077;-83
2022/11/01 07:30:24;;;;;;;11.20;2.10;;;;;;;11.58;81.05;101297.16;4974062;28;20034;-85
2022/11/01 07:33:00;;;;;;;13.02;1.92;;;;;;;11.63;80.53;101310.66;4973863;28;20430;-83
2022/11/01 07:35:26;;;;;;;6.88;1.63;;;;;;;11.63;80.09;101308.06;4972640;28;20037;-73
2022/11/01 07:37:54;;;;;;;10.60;2.13;;;;;;;11.62;80.58;101309.00;4974012;28;20459;-81
2022/11/01 07:40:26;;;;;;;7.32;1.42;;;;;;;11.69;79.92;101320.63;4972238;28;20105;-78
2022/11/01 07:42:51;;;;;;;6.13;1.40;;;;;;;11.71;79.92;101323.97;4958576;28;20365;-84
2022/11/01 07:45:17;;;;;;;7.18;2.03;;;;;;;11.59;80.91;101304.00;4958147;28;20038;-73
2022/11/01 07:47:42;;;;;;;12.70;2.22;;;;;;;11.70;80.50;101331.81;4957975;28;20035;-74
2022/11/01 07:50:08;;;;;;;11.00;2.05;;;;;;;11.45;80.34;101288.47;4972895;28;20126;-79
2022/11/01 07:52:33;;;;;;;10.13;2.08;;;;;;;11.71;80.13;101329.16;4957803;28;20055;-79
2022/11/01 07:54:58;;;;;;;8.90;1.75;;;;;;;11.64;80.42;101325.25;4958099;28;20041;-75
2022/11/01 07:57:23;;;;;;;12.52;1.90;;;;;;;11.67;79.68;101329.41;4957914;28;20028;-71
2022/11/01 07:59:49;;;;;;;10.55;2.28;;;;;;;11.66;79.63;101328.56;4957885;28;20479;-84
2022/11/01 08:02:14;;;;;;;9.73;2.33;;;;;;;11.71;79.05;101346.44;4958162;28;20098;-87
2022/11/01 08:04:39;;;;;;;10.07;1.95;;;;;;;11.74;79.44;101346.25;4957754;28;20024;-74
2022/11/01 08:07:05;;;;;;;14.30;2.58;;;;;;;11.75;79.38;101350.47;4972822;28;20087;-73
2022/11/01 08:09:30;;;;;;;13.43;2.13;;;;;;;11.78;79.07;101352.88;4958033;28;20379;-77
2022/11/01 08:11:56;;;;;;;11.77;2.08;;;;;;;11.81;78.47;101357.94;4957668;28;20035;-84
2022/11/01 08:14:21;;;;;;;10.63;2.30;;;;;;;11.64;78.81;101327.00;4957724;28;20027;-73
2022/11/01 08:16:49;;;;;;;13.98;2.20;;;;;;;11.84;77.68;101357.72;4957885;28;20046;-85
2022/11/01 08:19:14;;;;;;;10.73;2.00;;;;;;;11.85;78.06;101361.16;4957729;28;20031;-87
2022/11/01 08:21:39;;;;;;;12.00;2.58;;;;;;;11.71;78.58;101338.66;4957806;28;20082;-85
2022/11/01 08:24:05;;;;;;;16.55;2.72;;;;;;;11.84;77.90;101365.50;4957807;28;20443;-76
2022/11/01 08:26:30;;;;;;;12.63;2.47;;;;;;;11.84;77.39;101362.91;4957560;28;20035;-85
2022/11/01 08:28:55;;;;;;;12.70;2.35;;;;;;;11.94;77.74;101373.53;4957324;28;20027;-76
2022/11/01 08:31:21;;;;;;;9.68;2.47;;;;;;;11.82;78.05;101358.75;4957555;28;20085;-81
2022/11/01 08:33:46;;;;;;;13.27;2.25;;;;;;;11.96;79.07;101380.28;4957536;28;20031;-79
2022/11/01 08:36:11;;;;;;;10.13;2.05;;;;;;;11.99;77.95;101387.03;4957334;28;20023;-85
2022/11/01 08:38:37;;;;;;;20.90;2.63;;;;;;;12.03;77.93;101388.53;4975203;28;20378;-73
2022/11/01 08:41:02;;;;;;;13.23;2.22;;;;;;;12.03;77.05;101378.19;4976561;28;20092;-79
2022/11/01 08:43:28;;;;;;;15.43;2.58;;;;;;;12.04;76.77;101379.84;4976816;28;20034;-84
2022/11/01 08:45:53;;;;;;;14.05;2.70;;;;;;;12.02;76.94;101350.63;4976611;28;20023;-81
2022/11/01 08:48:19;;;;;;;10.90;1.92;;;;;;;12.12;75.96;101375.03;4976538;28;20054;-83
2022/11/01 08:50:44;;;;;;;18.75;3.17;;;;;;;12.13;76.13;101383.63;4976450;28;20030;-83
2022/11/01 08:53:13;;;;;;;11.40;2.03;;;;;;;12.14;76.31;101391.28;4975751;28;20065;-80
2022/11/01 08:55:39;;;;;;;12.00;2.40;;;;;;;12.17;75.74;101390.28;4976536;28;20031;-80
2022/11/01 08:58:05;;;;;;;15.15;2.70;;;;;;;12.20;76.28;101384.94;4976162;28;20027;-74
2022/11/01 09:00:31;;;;;;;12.30;2.30;;;;;;;12.22;76.00;101399.44;4976309;28;20031;-73
2022/11/01 09:02:56;;;;;;;10.23;2.10;;;;;;;12.22;76.67;101399.44;4976292;28;20030;-78
2022/11/01 09:05:22;;;;;;;12.60;2.20;;;;;;;12.17;75.60;101387.69;4976195;28;20532;-86
2022/11/01 09:07:47;;;;;;;15.50;2.42;;;;;;;12.16;75.96;101386.03;4976095;28;20541;-85
2022/11/01 09:10:15;;;;;;;11.23;2.10;;;;;;;12.31;75.90;101414.41;4975719;28;20034;-79
2022/11/01 09:12:40;;;;;;;12.50;2.30;;;;;;;12.32;75.10;101397.94;4964872;28;20023;-74
2022/11/01 09:15:06;;;;;;;14.20;2.65;;;;;;;12.33;76.40;101402.19;4966466;28;20418;-86
2022/11/01 09:17:31;;;;;;;13.25;2.60;;;;;;;12.38;75.69;101398.47;4966258;28;20027;-85
2022/11/01 09:19:57;;;;;;;12.05;2.47;;;;;;;12.28;76.20;101377.50;4967542;28;20471;-83
2022/11/01 09:22:22;;;;;;;11.70;2.67;;;;;;;12.36;75.28;101396.00;4975829;28;20042;-76
2022/11/01 09:24:48;;;;;;;10.18;1.95;;;;;;;12.45;76.05;101413.56;4975786;28;20438;-86
2022/11/01 09:27:13;;;;;;;11.02;2.28;;;;;;;12.47;75.82;101413.47;4975725;28;20053;-86
2022/11/01 09:29:38;;;;;;;11.23;2.10;;;;;;;12.40;75.28;101396.66;4975764;28;20034;-86
2022/11/01 09:32:05;;;;;;;14.63;2.67;;;;;;;12.54;76.10;101423.38;4975596;28;20545;-74
2022/11/01 09:34:31;;;;;;;14.68;2.70;;;;;;;12.56;75.96;101411.13;4975880;28;20030;-81
2022/11/01 09:36:56;;;;;;;11.55;2.72;;;;;;;12.60;75.08;101416.97;4975304;28;20027;-80
2022/11/01 09:39:22;;;;;;;13.68;2.95;;;;;;;12.54;75.68;101415.59;4975531;28;20031;-82
2022/11/01 09:41:53;;;;;;;15.23;3.00;;;;;;;12.59;74.86;101439.47;4975547;28;20043;-82
2022/11/01 09:44:24;;;;;;;;;;;;;;;12.63;75.55;101446.13;4975790;28;20035;-77
2022/11/01 09:46:55;;;;;;;16.85;2.25;;;;;;;12.51;74.97;101428.75;4975785;28;19914;-85
2022/11/01 09:49:32;;;;;;;;;;;;;;;12.67;75.18;101454.53;4975944;28;20027;-84
2022/11/01 09:51:57;;;;;;;15.07;2.47;;;;;;;12.72;74.92;101454.25;4975021;28;19925;-87
2022/11/01 09:54:24;;;;;;;14.35;2.75;;;;;;;12.73;74.60;101456.75;4976056;28;20030;-81
2022/11/01 09:57:33;;;;;;;13.85;2.42;;;;;;;12.74;75.23;101466.19;4975483;28;20495;-89
2022/11/01 10:00:06;;;;;;;13.73;2.15;;;;;;;12.73;75.14;101469.69;4975438;28;20075;-91
2022/11/01 10:02:53;;;;;;;11.95;2.53;;;;;;;12.79;75.83;101486.66;4975278;28;20029;-88
2022/11/01 10:05:37;;;;;;;14.57;2.38;;;;;;;12.83;75.36;101481.16;4974327;28;20030;-88
2022/11/01 10:08:08;;;;;;;12.13;2.47;;;;;;;12.86;75.14;101493.94;4975320;28;20030;-92
2022/11/01 10:10:59;;;;;;;13.48;2.22;;;;;;;12.90;75.27;101492.81;4974933;28;20478;-86
2022/11/01 10:13:34;;;;;;;10.38;2.20;;;;;;;12.97;75.30;101502.78;4975022;28;20031;-87
2022/11/01 10:16:17;;;;;;;17.13;3.15;;;;;;;12.89;75.76;101477.38;4975174;28;20106;-85
2022/11/01 10:19:10;;;;;;;12.95;2.13;;;;;;;13.04;75.07;101496.31;4975136;28;20034;-91
2022/11/01 10:21:54;;;;;;;11.82;2.30;;;;;;;13.06;75.24;101503.06;4974023;28;20117;-88
2022/11/01 10:24:36;;;;;;;15.10;2.53;;;;;;;13.10;74.87;101498.53;4974916;28;20113;-83
2022/11/01 10:27:30;;;;;;;11.15;2.40;;;;;;;13.06;74.24;101484.06;4974989;28;20019;-88
2022/11/01 10:30:15;;;;;;;15.32;2.60;;;;;;;13.13;74.74;101500.91;4974610;28;20038;-87
2022/11/01 10:32:56;;;;;;;13.45;2.55;;;;;;;13.14;73.99;101498.22;4974586;28;20062;-87
2022/11/01 10:35:28;;;;;;;13.25;2.13;;;;;;;12.99;73.83;101475.03;4974753;28;20037;-84
2022/11/01 10:38:02;;;;;;;12.38;2.13;;;;;;;13.19;74.26;101495.38;4973291;28;20034;-81
2022/11/01 10:41:26;;;;;;;14.13;2.45;;;;;;;13.25;75.72;101505.34;4974789;28;20058;-78
2022/11/01 10:43:56;;;;;;;13.77;2.35;;;;;;;13.32;75.39;101514.41;4895795;29;20044;-85
2022/11/01 10:46:28;;;;;;;14.82;2.63;;;;;;;13.36;74.30;101502.91;4895826;29;20440;-81
2022/11/01 10:49:02;;;;;;;12.38;2.60;;;;;;;13.39;75.92;101505.31;4895709;29;20044;-86
2022/11/01 10:51:31;;;;;;;11.98;2.25;;;;;;;13.35;73.99;101493.47;4880293;29;20033;-80
2022/11/01 10:54:01;;;;;;;13.30;2.00;;;;;;;13.41;73.71;101513.84;4895706;29;20045;-83
2022/11/01 10:56:33;;;;;;;12.80;2.40;;;;;;;13.42;73.38;101507.72;4895830;29;20036;-75
2022/11/01 10:59:01;;;;;;;13.57;2.10;;;;;;;13.48;73.79;101512.53;4895490;29;20060;-86
2022/11/01 11:01:30;;;;;;;12.20;2.40;;;;;;;13.54;73.84;101500.91;4895626;29;20048;-81
2022/11/01 11:04:00;;;;;;;11.93;2.70;;;;;;;13.55;73.35;101501.72;4895945;29;20025;-83
2022/11/01 11:06:26;;;;;;;12.68;2.50;;;;;;;13.53;73.05;101501.84;4895928;29;20044;-79
2022/11/01 11:08:54;;;;;;;11.50;2.40;;;;;;;13.57;73.54;101505.91;4895978;29;20029;-83
2022/11/01 11:11:34;;;;;;;14.48;2.63;;;;;;;13.44;72.71;101485.09;4895883;29;20111;-81
2022/11/01 11:14:04;;;;;;;12.82;2.40;;;;;;;13.63;72.35;101508.09;4895690;29;20043;-82
2022/11/01 11:16:43;;;;;;;11.77;2.30;;;;;;;13.69;74.10;101505.09;4896307;29;20060;-85
2022/11/01 11:19:20;;;;;;;14.93;2.22;;;;;;;13.73;71.80;101497.94;4923326;28;20047;-84
2022/11/01 11:21:48;;;;;;;13.15;2.53;;;;;;;13.77;72.22;101499.44;4978345;28;20027;-83
2022/11/01 11:24:19;;;;;;;13.48;2.83;;;;;;;13.79;72.68;101497.56;4977702;28;20553;-77
2022/11/01 11:26:54;;;;;;;12.20;2.40;;;;;;;13.76;72.69;101488.22;4977991;28;20478;-71
2022/11/01 11:29:36;;;;;;;11.38;2.50;;;;;;;13.86;71.97;101495.38;4977123;28;20514;-88
2022/11/01 11:32:05;;;;;;;13.98;2.90;;;;;;;13.87;72.05;101491.88;4992785;28;20538;-85
2022/11/01 11:34:34;;;;;;;12.40;2.25;;;;;;;13.95;71.71;101505.97;4977849;28;20027;-80
2022/11/01 11:37:02;;;;;;;10.95;1.95;;;;;;;13.98;71.70;101504.97;4978615;28;20086;-85
2022/11/01 11:39:33;;;;;;;10.75;2.30;;;;;;;14.00;71.55;101508.28;5001057;23;20086;-85